Astatula, Florida
Current Conditions -  °F | °C
As of 6:53 PM on Friday 24 Oct 2014 (Local Time) from KLEE Reporting Station
Clear Clear  
Wind Chill: 71°   Ceiling: Unl
Heat Index: 71°   Visibility: 10mi
Dew Point: 54°   Wind: 8mph
Humidity: 55%   Direction: 50°NE
Pressure: 29.94"   Gusts: NA
Location:  28.71°N, 81.73°W
Report Text: KLEE 242253Z AUTO 05007KT 10SM CLR 22/12 A2994 RMK AO2 SLP137 T02170122
Loading
Personal Weather Stations






























Interactive Weather Map
Tropical Storm Tracking
New forecast layout! Learn more

10-Day Weather Forecast

Advertisements
Track Severe Weather on mobile